Time;durP1;ratioP1;P1;durP2;ratioP2;P2;SDS_P1;SDS_P2;PMS_P1;PMS_P2;Temp;Humidity;BMP_temperature;BMP_pressure;BME280_temperature;BME280_humidity;BME280_pressure;Samples;Min_cycle;Max_cycle;Signal;HPM_P1;HPM_P2
2022/01/05 00:01:46;;;;;;;;;;;;;;;9.39;63.88;99358.46;117467;1187;21845;-86
2022/01/05 00:04:14;;;;;;;;;;;;;;;9.43;63.83;99355.02;117594;1179;23501;-86
2022/01/05 00:06:44;;;;;;;;;;;;;;;9.48;63.79;99355.09;117643;1179;22921;-87
2022/01/05 00:09:12;;;;;;;;;;;;;;;9.52;63.84;99364.95;117434;1182;21847;-86
2022/01/05 00:11:41;;;;;;;;;;;;;;;9.55;63.79;99370.15;117572;1179;23440;-86
2022/01/05 00:14:09;;;;;;;;;;;;;;;9.57;63.72;99368.54;117628;1182;21840;-87
2022/01/05 00:16:38;;;;;;;;;;;;;;;9.59;63.69;99365.68;117610;1186;23785;-86
2022/01/05 00:19:06;;;;;;;;;;;;;;;9.57;63.71;99370.27;117578;1185;21841;-87
2022/01/05 00:21:34;;;;;;;;;;;;;;;9.58;63.76;99373.42;117531;1182;22322;-86
2022/01/05 00:24:03;;;;;;;;;;;;;;;9.58;63.68;99379.88;117660;1185;21845;-86
2022/01/05 00:26:31;;;;;;;;;;;;;;;9.60;63.88;99379.32;117698;1182;23596;-86
2022/01/05 00:28:59;;;;;;;;;;;;;;;9.63;63.78;99380.13;117661;1186;22944;-85
2022/01/05 00:31:27;;;;;;;;;;;;;;;9.66;63.73;99379.35;117659;1183;21904;-86
2022/01/05 00:33:55;;;;;;;;;;;;;;;9.68;63.76;99375.09;117723;1185;21835;-86
2022/01/05 00:36:24;;;;;;;;;;;;;;;9.71;63.82;99364.86;117635;1183;22169;-86
2022/01/05 00:38:52;;;;;;;;;;;;;;;9.75;63.86;99368.27;117620;1185;22933;-86
2022/01/05 00:41:20;;;;;;;;;;;;;;;9.80;63.77;99362.86;117686;1185;22102;-87
2022/01/05 00:43:48;;;;;;;;;;;;;;;9.85;63.90;99368.72;117668;1185;23516;-86
2022/01/05 00:46:16;;;;;;;;;;;;;;;9.87;63.78;99370.93;117653;1183;22901;-86
2022/01/05 00:48:44;;;;;;;;;;;;;;;9.88;63.79;99366.55;117651;1183;21818;-86
2022/01/05 00:51:14;;;;;;;;;;;;;;;9.89;63.85;99368.09;117726;1185;21855;-86
2022/01/05 00:53:43;;;;;;;;;;;;;;;9.88;63.75;99372.67;117598;1182;22785;-86
2022/01/05 00:56:11;;;;;;;;;;;;;;;9.86;63.67;99365.02;117670;1185;22957;-87
2022/01/05 00:58:38;;;;;;;;;;;;;;;9.81;63.67;99367.41;117701;1186;21842;-87
2022/01/05 01:01:07;;;;;;;;;;;;;;;9.77;63.55;99356.29;117629;1185;21822;-86
2022/01/05 01:03:36;;;;;;;;;;;;;;;9.73;63.62;99353.27;117591;1179;23590;-86
2022/01/05 01:06:13;;;;;;;;;;;;;;;9.67;63.54;99342.55;117667;1185;23570;-86
2022/01/05 01:08:41;;;;;;;;;;;;;;;9.60;63.55;99333.95;117711;1179;22269;-87
2022/01/05 01:11:09;;;;;;;;;;;;;;;9.52;63.56;99326.77;117691;1186;23510;-86
2022/01/05 01:13:38;;;;;;;;;;;;;;;9.44;63.45;99326.80;117680;1186;21968;-86
2022/01/05 01:16:06;;;;;;;;;;;;;;;9.37;63.49;99329.95;117547;1178;23446;-86
2022/01/05 01:18:39;;;;;;;;;;;;;;;9.29;63.50;99340.29;117514;1179;23656;-86
2022/01/05 01:21:08;;;;;;;;;;;;;;;9.22;63.50;99339.74;117511;1178;23437;-86
2022/01/05 01:23:37;;;;;;;;;;;;;;;9.16;63.53;99332.05;117456;1186;22695;-86
2022/01/05 01:26:05;;;;;;;;;;;;;;;9.10;63.67;99325.34;117660;1185;21842;-86
2022/01/05 01:28:33;;;;;;;;;;;;;;;9.05;63.64;99319.31;117708;1186;22910;-87
2022/01/05 01:31:01;;;;;;;;;;;;;;;9.03;63.63;99318.69;117565;1183;21906;-86
2022/01/05 01:33:29;;;;;;;;;;;;;;;9.00;63.58;99316.83;117443;1182;22911;-87
2022/01/05 01:35:57;;;;;;;;;;;;;;;8.98;63.60;99312.69;117697;1185;22492;-87
2022/01/05 01:38:25;;;;;;;;;;;;;;;8.96;63.58;99319.53;117593;1183;21837;-86
2022/01/05 01:40:53;;;;;;;;;;;;;;;8.96;63.65;99319.89;117504;1186;21843;-86
2022/01/05 01:43:21;;;;;;;;;;;;;;;8.96;63.57;99314.98;117478;1182;23605;-87
2022/01/05 01:45:49;;;;;;;;;;;;;;;8.98;63.74;99315.29;117588;1185;21841;-86
2022/01/05 01:48:17;;;;;;;;;;;;;;;9.02;63.66;99315.38;117382;1187;23516;-86
2022/01/05 01:50:45;;;;;;;;;;;;;;;9.06;63.76;99312.45;117601;1182;24162;-86
2022/01/05 01:53:13;;;;;;;;;;;;;;;9.13;63.78;99314.58;117623;1182;21834;-86
2022/01/05 01:55:41;;;;;;;;;;;;;;;9.18;63.71;99307.64;117648;1186;21850;-85
2022/01/05 01:58:09;;;;;;;;;;;;;;;9.21;63.68;99304.25;117603;1184;21867;-86
2022/01/05 02:00:37;;;;;;;;;;;;;;;9.24;63.78;99309.61;117488;1186;21871;-86
2022/01/05 02:03:05;;;;;;;;;;;;;;;9.28;63.69;99293.59;117627;1186;22319;-86
2022/01/05 02:05:37;;;;;;;;;;;;;;;9.30;63.73;99293.02;117697;1186;22392;-85
2022/01/05 02:08:05;;;;;;;;;;;;;;;9.32;63.79;99299.79;117473;1186;21833;-86
2022/01/05 02:10:33;;;;;;;;;;;;;;;9.33;63.78;99307.46;117690;1182;23440;-86
2022/01/05 02:13:01;;;;;;;;;;;;;;;9.33;63.73;99301.16;117643;1185;23524;-85
2022/01/05 02:15:35;;;;;;;;;;;;;;;9.31;63.69;99285.98;117602;1182;22254;-86
2022/01/05 02:20:34;;;;;;;;;;;;;;;9.26;63.66;99285.08;117639;1186;21864;-86
2022/01/05 02:23:03;;;;;;;;;;;;;;;9.24;63.54;99281.79;117590;1182;22878;-86
2022/01/05 02:25:31;;;;;;;;;;;;;;;9.21;63.60;99283.06;117724;1186;22918;-86
2022/01/05 02:27:59;;;;;;;;;;;;;;;9.18;63.48;99281.40;117582;1186;21831;-86
2022/01/05 02:30:28;;;;;;;;;;;;;;;9.15;63.38;99274.65;117478;1186;21893;-86
2022/01/05 02:32:56;;;;;;;;;;;;;;;9.08;63.39;99270.43;117634;1183;22954;-86
2022/01/05 02:35:25;;;;;;;;;;;;;;;9.01;63.47;99268.14;117633;1186;23541;-86
2022/01/05 02:37:53;;;;;;;;;;;;;;;8.98;63.36;99263.14;117603;1183;23541;-86
2022/01/05 02:40:22;;;;;;;;;;;;;;;8.92;63.33;99258.90;117686;1185;22831;-86
2022/01/05 02:42:51;;;;;;;;;;;;;;;8.88;63.38;99250.77;117447;1185;21900;-86
2022/01/05 02:45:19;;;;;;;;;;;;;;;8.82;63.41;99247.95;117724;1186;23613;-86
2022/01/05 02:47:48;;;;;;;;;;;;;;;8.75;63.24;99243.73;117599;1185;21843;-86
2022/01/05 02:50:16;;;;;;;;;;;;;;;8.68;63.27;99232.86;117564;1185;21857;-87
2022/01/05 02:52:45;;;;;;;;;;;;;;;8.61;63.24;99233.20;117576;1183;21845;-87
2022/01/05 02:55:13;;;;;;;;;;;;;;;8.57;63.39;99239.23;117626;1185;21839;-87
2022/01/05 02:57:41;;;;;;;;;;;;;;;8.54;63.26;99239.48;117503;1182;22328;-86
2022/01/05 03:00:09;;;;;;;;;;;;;;;8.48;63.38;99243.10;117680;1183;21877;-86
2022/01/05 03:02:38;;;;;;;;;;;;;;;8.42;63.34;99248.09;117702;1185;21835;-86
2022/01/05 03:05:06;;;;;;;;;;;;;;;8.35;63.55;99254.88;117421;1188;21836;-86
2022/01/05 03:07:39;;;;;;;;;;;;;;;8.30;63.40;99258.66;117303;1186;22712;-86
2022/01/05 03:10:07;;;;;;;;;;;;;;;8.26;63.60;99255.77;117393;1179;23414;-86
2022/01/05 03:12:37;;;;;;;;;;;;;;;8.22;63.51;99255.51;117492;1187;21839;-87
2022/01/05 03:15:05;;;;;;;;;;;;;;;8.16;63.42;99255.28;117317;1187;22708;-87
2022/01/05 03:17:38;;;;;;;;;;;;;;;8.11;63.37;99251.88;117368;1182;23534;-86
2022/01/05 03:20:06;;;;;;;;;;;;;;;8.06;63.44;99247.80;117314;1187;21838;-86
2022/01/05 03:22:34;;;;;;;;;;;;;;;8.01;63.14;99246.50;117309;1185;23420;-87
2022/01/05 03:25:03;;;;;;;;;;;;;;;7.97;63.34;99253.20;117382;1186;22471;-86
2022/01/05 03:27:31;;;;;;;;;;;;;;;7.92;63.36;99265.36;117362;1187;22310;-87
2022/01/05 03:29:59;;;;;;;;;;;;;;;7.89;63.38;99263.49;117434;1182;22216;-86
2022/01/05 03:32:36;;;;;;;;;;;;;;;7.86;63.41;99263.02;117480;1186;23455;-86
2022/01/05 03:35:05;;;;;;;;;;;;;;;7.83;63.38;99265.52;117346;1186;21826;-87
2022/01/05 03:37:33;;;;;;;;;;;;;;;7.82;63.49;99269.39;117444;1182;23003;-86
2022/01/05 03:40:01;;;;;;;;;;;;;;;7.82;63.51;99270.77;117298;1179;21868;-86
2022/01/05 03:42:29;;;;;;;;;;;;;;;7.83;63.51;99266.39;117339;1182;23015;-86
2022/01/05 03:44:57;;;;;;;;;;;;;;;7.88;63.45;99278.36;117283;1182;23519;-86
2022/01/05 03:47:25;;;;;;;;;;;;;;;7.89;63.63;99276.08;117258;1186;22915;-87
2022/01/05 03:49:53;;;;;;;;;;;;;;;7.93;63.54;99275.83;117263;1189;21866;-86
2022/01/05 03:52:21;;;;;;;;;;;;;;;7.96;63.61;99270.70;117333;1182;22915;-86
2022/01/05 03:54:49;;;;;;;;;;;;;;;7.97;63.58;99267.01;117350;1182;21844;-87
2022/01/05 03:57:17;;;;;;;;;;;;;;;7.97;63.50;99264.21;117355;1189;21850;-86
2022/01/05 03:59:45;;;;;;;;;;;;;;;7.97;63.51;99269.45;117319;1188;22678;-86
2022/01/05 04:02:13;;;;;;;;;;;;;;;7.97;63.68;99270.67;117393;1186;22989;-86
2022/01/05 04:04:41;;;;;;;;;;;;;;;7.97;63.58;99271.70;117535;1179;23425;-87
2022/01/05 04:07:10;;;;;;;;;;;;;;;7.96;63.35;99270.52;117538;1182;22597;-87
2022/01/05 04:09:38;;;;;;;;;;;;;;;7.93;63.40;99263.05;117658;1178;21854;-87
2022/01/05 04:12:06;;;;;;;;;;;;;;;7.91;63.46;99275.88;117620;1179;21865;-86
2022/01/05 04:14:34;;;;;;;;;;;;;;;7.88;63.44;99266.66;117610;1182;22622;-86
2022/01/05 04:17:04;;;;;;;;;;;;;;;7.86;63.34;99263.39;117702;1186;21858;-86
2022/01/05 04:19:33;;;;;;;;;;;;;;;7.82;63.47;99253.84;117646;1182;23551;-86
2022/01/05 04:22:01;;;;;;;;;;;;;;;7.83;63.37;99246.66;117614;1186;21833;-86
2022/01/05 04:24:29;;;;;;;;;;;;;;;7.79;63.59;99241.50;117659;1185;21845;-87
2022/01/05 04:26:57;;;;;;;;;;;;;;;7.77;63.48;99243.81;117670;1186;23516;-87
2022/01/05 04:29:25;;;;;;;;;;;;;;;7.75;63.52;99244.02;117691;1186;21855;-87
2022/01/05 04:31:53;;;;;;;;;;;;;;;7.73;63.48;99250.18;117741;1186;21795;-86
2022/01/05 04:34:22;;;;;;;;;;;;;;;7.75;63.27;99246.64;117666;1183;21944;-86
2022/01/05 04:37:10;;;;;;;;;;;;;;;7.75;63.50;99246.64;117481;1182;22911;-87
2022/01/05 04:39:38;;;;;;;;;;;;;;;7.76;63.37;99240.86;117436;1179;23451;-86
2022/01/05 04:42:06;;;;;;;;;;;;;;;7.77;63.49;99237.17;117694;1179;21858;-86
2022/01/05 04:44:34;;;;;;;;;;;;;;;7.73;63.43;99233.73;117638;1182;22808;-86
2022/01/05 04:47:03;;;;;;;;;;;;;;;7.74;63.64;99228.86;117626;1186;21836;-86
2022/01/05 04:49:31;;;;;;;;;;;;;;;7.73;63.51;99233.41;117633;1186;21847;-86
2022/01/05 04:51:59;;;;;;;;;;;;;;;7.70;63.56;99232.42;117644;1183;22975;-86
2022/01/05 04:54:27;;;;;;;;;;;;;;;7.68;63.53;99242.25;117626;1179;22310;-86
2022/01/05 04:56:55;;;;;;;;;;;;;;;7.65;63.59;99242.27;117618;1184;21835;-87
2022/01/05 04:59:23;;;;;;;;;;;;;;;7.68;63.52;99249.75;117407;1183;23592;-86
2022/01/05 05:01:51;;;;;;;;;;;;;;;7.63;63.23;99254.02;117714;1186;21836;-87
2022/01/05 05:04:19;;;;;;;;;;;;;;;7.59;63.30;99254.97;117596;1186;21837;-87
2022/01/05 05:06:49;;;;;;;;;;;;;;;7.57;63.38;99257.95;117638;1185;21836;-87
2022/01/05 05:09:20;;;;;;;;;;;;;;;7.54;63.22;99270.59;117489;1188;23518;-87
2022/01/05 05:11:48;;;;;;;;;;;;;;;7.50;63.16;99273.12;117702;1179;21837;-87
2022/01/05 05:14:16;;;;;;;;;;;;;;;7.45;63.09;99275.81;117749;1185;23512;-87
2022/01/05 05:16:44;;;;;;;;;;;;;;;7.42;63.39;99278.30;117903;1182;21835;-86
2022/01/05 05:19:12;;;;;;;;;;;;;;;7.40;63.40;99287.77;117707;1185;21838;-85
2022/01/05 05:21:40;;;;;;;;;;;;;;;7.38;63.18;99292.86;117731;1185;21843;-86
2022/01/05 05:24:10;;;;;;;;;;;;;;;7.39;63.17;99289.67;117778;1182;21824;-86
2022/01/05 05:26:38;;;;;;;;;;;;;;;7.37;63.14;99288.17;117497;1179;22712;-86
2022/01/05 05:29:06;;;;;;;;;;;;;;;7.35;63.17;99289.61;117734;1182;23440;-86
2022/01/05 05:31:34;;;;;;;;;;;;;;;7.34;63.24;99284.91;117620;1187;23680;-86
2022/01/05 05:34:03;;;;;;;;;;;;;;;7.38;63.15;99288.84;117712;1183;23018;-84
2022/01/05 05:36:49;;;;;;;;;;;;;;;7.39;63.46;99291.80;117604;1185;23580;-85
2022/01/05 05:39:18;;;;;;;;;;;;;;;7.40;63.42;99285.66;117481;1182;23519;-85
2022/01/05 05:41:46;;;;;;;;;;;;;;;7.41;63.04;99273.26;117662;1183;21942;-86
2022/01/05 05:44:14;;;;;;;;;;;;;;;7.42;63.22;99280.05;117443;1186;21833;-86
2022/01/05 05:46:42;;;;;;;;;;;;;;;7.43;63.25;99292.25;117493;1187;21842;-85
2022/01/05 05:49:10;;;;;;;;;;;;;;;7.43;63.12;99300.80;117627;1182;22310;-87
2022/01/05 05:51:38;;;;;;;;;;;;;;;7.43;63.29;99299.23;117691;1185;21842;-86
2022/01/05 05:54:07;;;;;;;;;;;;;;;7.42;63.20;99300.82;117511;1186;21834;-86
2022/01/05 05:56:35;;;;;;;;;;;;;;;7.42;63.09;99298.55;117479;1188;21870;-85
2022/01/05 05:59:03;;;;;;;;;;;;;;;7.43;63.28;99304.82;117659;1182;21870;-87
2022/01/05 06:01:31;;;;;;;;;;;;;;;7.43;63.29;99312.66;117488;1182;22247;-86
2022/01/05 06:03:59;;;;;;;;;;;;;;;7.46;63.20;99321.17;117641;1185;21867;-88
2022/01/05 06:06:28;;;;;;;;;;;;;;;7.49;63.07;99325.33;117526;1186;22181;-88
2022/01/05 06:08:55;;;;;;;;;;;;;;;7.50;63.06;99324.78;117620;1183;22629;-86
2022/01/05 06:11:23;;;;;;;;;;;;;;;7.52;63.19;99324.73;117678;1183;21861;-86
2022/01/05 06:13:52;;;;;;;;;;;;;;;7.52;63.32;99331.20;117661;1185;21879;-85
2022/01/05 06:16:22;;;;;;;;;;;;;;;7.55;63.26;99334.64;117641;1182;21898;-86
2022/01/05 06:18:50;;;;;;;;;;;;;;;7.56;63.35;99336.38;117614;1185;22626;-85
2022/01/05 06:21:18;;;;;;;;;;;;;;;7.55;63.10;99336.55;117466;1186;21841;-85
2022/01/05 06:23:45;;;;;;;;;;;;;;;7.53;63.32;99337.29;117632;1184;22911;-86
2022/01/05 06:26:13;;;;;;;;;;;;;;;7.52;63.33;99330.86;117549;1185;23513;-86
2022/01/05 06:28:41;;;;;;;;;;;;;;;7.51;63.26;99331.22;117369;1182;21844;-86
2022/01/05 06:31:09;;;;;;;;;;;;;;;7.53;63.31;99336.59;117584;1182;22912;-87
2022/01/05 06:33:38;;;;;;;;;;;;;;;7.56;63.53;99348.23;117632;1185;21881;-85
2022/01/05 06:36:07;;;;;;;;;;;;;;;7.51;63.57;99357.59;117770;1185;23512;-84
2022/01/05 06:38:35;;;;;;;;;;;;;;;7.49;63.51;99345.57;117677;1185;23621;-85
2022/01/05 06:41:03;;;;;;;;;;;;;;;7.51;63.76;99340.30;117485;1187;21825;-85
2022/01/05 06:43:31;;;;;;;;;;;;;;;7.55;63.72;99347.02;117335;1187;21934;-86
2022/01/05 06:45:59;;;;;;;;;;;;;;;7.57;63.91;99352.41;117409;1183;21845;-86
2022/01/05 06:48:28;;;;;;;;;;;;;;;7.61;63.76;99353.23;117810;1180;22250;-85
2022/01/05 06:50:56;;;;;;;;;;;;;;;7.65;63.85;99346.17;117657;1185;21837;-85
2022/01/05 06:53:24;;;;;;;;;;;;;;;7.69;63.76;99346.11;117613;1185;21842;-86
2022/01/05 06:55:52;;;;;;;;;;;;;;;7.74;63.88;99342.70;117650;1185;23579;-86
2022/01/05 06:58:20;;;;;;;;;;;;;;;7.83;63.87;99336.79;117466;1187;21851;-85
2022/01/05 07:00:48;;;;;;;;;;;;;;;7.86;63.97;99354.03;117690;1183;21835;-85
2022/01/05 07:03:16;;;;;;;;;;;;;;;7.91;63.96;99353.95;117437;1186;22916;-86
2022/01/05 07:05:44;;;;;;;;;;;;;;;7.97;64.04;99349.30;117664;1179;23319;-86
2022/01/05 07:08:12;;;;;;;;;;;;;;;8.03;64.07;99342.72;117484;1186;21845;-86
2022/01/05 07:10:40;;;;;;;;;;;;;;;8.10;64.01;99357.27;117649;1185;23550;-85
2022/01/05 07:13:08;;;;;;;;;;;;;;;8.18;63.99;99356.95;117634;1185;23513;-88
2022/01/05 07:15:36;;;;;;;;;;;;;;;8.24;64.01;99359.81;117637;1185;22322;-86
2022/01/05 07:18:04;;;;;;;;;;;;;;;8.28;64.10;99353.60;117677;1179;21886;-87
2022/01/05 07:20:32;;;;;;;;;;;;;;;8.34;64.03;99355.25;117660;1185;21847;-85
2022/01/05 07:23:00;;;;;;;;;;;;;;;8.40;64.06;99357.23;117654;1185;23606;-85
2022/01/05 07:25:29;;;;;;;;;;;;;;;8.45;64.10;99350.66;117662;1183;22861;-86
2022/01/05 07:27:58;;;;;;;;;;;;;;;8.49;63.97;99345.00;117467;1188;23615;-85
2022/01/05 07:30:26;;;;;;;;;;;;;;;8.54;63.96;99346.31;117511;1182;21840;-85
2022/01/05 07:32:54;;;;;;;;;;;;;;;8.60;63.90;99351.08;117698;1185;21912;-85
2022/01/05 07:35:21;;;;;;;;;;;;;;;8.65;63.77;99350.96;117651;1185;22928;-85
2022/01/05 07:37:49;;;;;;;;;;;;;;;8.71;63.80;99358.56;117643;1185;22129;-84
2022/01/05 07:40:17;;;;;;;;;;;;;;;8.74;63.84;99363.39;117625;1183;22990;-85
2022/01/05 07:42:45;;;;;;;;;;;;;;;8.78;63.81;99359.81;117740;1185;21842;-85
2022/01/05 07:45:13;;;;;;;;;;;;;;;8.81;63.96;99359.39;117637;1186;22294;-86
2022/01/05 07:47:42;;;;;;;;;;;;;;;8.90;64.03;99356.05;117834;1183;23067;-86
2022/01/05 07:50:14;;;;;;;;;;;;;;;9.02;64.02;99355.27;117678;1182;21850;-85
2022/01/05 07:52:45;;;;;;;;;;;;;;;9.15;64.07;99359.52;117407;1186;21856;-85
2022/01/05 07:55:13;;;;;;;;;;;;;;;9.26;63.90;99360.14;117557;1185;23637;-85
2022/01/05 07:57:41;;;;;;;;;;;;;;;9.44;63.85;99362.89;117618;1185;23452;-85
2022/01/05 08:00:10;;;;;;;;;;;;;;;9.55;63.80;99367.35;117626;1185;21872;-86
2022/01/05 08:02:38;;;;;;;;;;;;;;;9.61;63.91;99376.48;117709;1185;21846;-85
2022/01/05 08:05:07;;;;;;;;;;;;;;;9.73;64.09;99380.23;117689;1179;21835;-85
2022/01/05 08:07:35;;;;;;;;;;;;;;;9.87;64.11;99377.60;117550;1186;23569;-86
2022/01/05 08:10:18;;;;;;;;;;;;;;;10.01;64.05;99380.74;117666;1185;23537;-85
2022/01/05 08:13:07;;;;;;;;;;;;;;;10.12;64.17;99385.70;117574;1182;23425;-86
2022/01/05 08:19:31;;;;;;;;;;;;;;;10.38;64.22;99391.70;117629;1183;21941;-90
2022/01/05 08:22:04;;;;;;;;;;;;;;;10.51;64.05;99393.13;117447;1185;23525;-82
2022/01/05 08:24:32;;;;;;;;;;;;;;;10.58;64.10;99395.05;117536;1186;23602;-82
2022/01/05 08:27:01;;;;;;;;;;;;;;;10.66;64.03;99387.77;117683;1185;23702;-82
2022/01/05 08:29:31;;;;;;;;;;;;;;;10.77;64.13;99378.19;117710;1182;23593;-82
2022/01/05 08:32:02;;;;;;;;;;;;;;;10.91;64.01;99370.23;117504;1182;22247;-87
2022/01/05 08:34:30;;;;;;;;;;;;;;;11.01;64.15;99365.02;117590;1185;22909;-86
2022/01/05 08:37:25;;;;;;;;;;;;;;;11.16;64.31;99357.90;117028;1190;22648;-86
2022/01/05 08:43:13;;;;;;;;;;;;;;;11.40;64.17;99348.36;117210;1173;102956;-56
2022/01/05 08:45:42;;;;;;;;;;;;;;;11.48;64.23;99347.57;117094;1188;21854;-56
2022/01/05 08:48:14;;;;;;;;;;;;;;;11.56;64.26;99345.73;117082;1188;23573;-55
2022/01/05 08:50:42;;;;;;;;;;;;;;;11.66;64.41;99342.27;117024;1186;21838;-57
2022/01/05 08:53:11;;;;;;;;;;;;;;;11.73;64.37;99343.40;117073;1186;21846;-56
2022/01/05 08:55:40;;;;;;;;;;;;;;;11.74;64.14;99341.80;117137;1186;21851;-58
2022/01/05 08:58:09;;;;;;;;;;;;;;;11.74;63.96;99339.86;117043;1186;21847;-64
2022/01/05 09:00:37;;;;;;;;;;;;;;;11.74;63.92;99338.81;116942;1186;23584;-64
2022/01/05 09:03:06;;;;;;;;;;;;;;;11.70;64.03;99334.74;116940;1186;21844;-65
2022/01/05 09:05:34;;;;;;;;;;;;;;;11.67;63.96;99332.55;117394;1179;21842;-58
2022/01/05 09:08:02;;;;;;;;;;;;;;;11.65;63.90;99333.34;116864;1185;23538;-64
2022/01/05 09:10:30;;;;;;;;;;;;;;;11.63;63.91;99331.98;116934;1186;24160;-64
2022/01/05 09:12:59;;;;;;;;;;;;;;;11.60;63.99;99331.18;117003;1186;22805;-63
2022/01/05 09:15:27;;;;;;;;;;;;;;;11.60;63.93;99332.41;117002;1186;22092;-60
2022/01/05 09:17:57;;;;;;;;;;;;;;;11.63;64.18;99337.98;117077;1186;23659;-58
2022/01/05 09:20:25;;;;;;;;;;;;;;;11.67;64.26;99337.11;116997;1183;24175;-64
2022/01/05 09:22:55;;;;;;;;;;;;;;;11.77;64.23;99337.32;116993;1179;23485;-65
2022/01/05 09:25:24;;;;;;;;;;;;;;;11.87;64.23;99341.71;116952;1186;22635;-63
2022/01/05 09:27:52;;;;;;;;;;;;;;;11.94;64.28;99332.85;117007;1184;23475;-58
2022/01/05 09:30:20;;;;;;;;;;;;;;;12.02;64.24;99331.36;116884;1186;23637;-58
2022/01/05 09:32:49;;;;;;;;;;;;;;;12.12;64.18;99332.09;117009;1186;21881;-58
2022/01/05 09:35:20;;;;;;;;;;;;;;;12.22;64.26;99325.58;117026;1186;23538;-64
2022/01/05 09:37:53;;;;;;;;;;;;;;;12.33;64.12;99312.71;117023;1188;21842;-64
2022/01/05 09:43:08;;;;;;;;;;;;;;;12.51;64.28;99318.56;117023;1186;22811;-58
2022/01/05 09:45:38;;;;;;;;;;;;;;;12.60;64.26;99319.47;116991;1186;22617;-63
2022/01/05 09:48:14;;;;;;;;;;;;;;;12.71;64.38;99315.19;116839;1185;22983;-65
2022/01/05 09:50:48;;;;;;;;;;;;;;;12.87;64.49;99308.55;116857;1184;23257;-58
2022/01/05 09:53:16;;;;;;;;;;;;;;;13.10;64.71;99307.50;116957;1186;23461;-60
2022/01/05 09:55:47;;;;;;;;;;;;;;;13.29;64.80;99310.81;116909;1186;22942;-58
2022/01/05 09:58:16;;;;;;;;;;;;;;;13.42;64.54;99306.58;117064;1186;23584;-58
2022/01/05 10:00:44;;;;;;;;;;;;;;;13.53;64.42;99306.50;116995;1186;22277;-64
2022/01/05 10:03:14;;;;;;;;;;;;;;;13.61;64.38;99305.85;116960;1186;21851;-64
2022/01/05 10:05:42;;;;;;;;;;;;;;;13.67;64.09;99299.75;116839;1186;23450;-59
2022/01/05 10:08:10;;;;;;;;;;;;;;;13.78;64.28;99302.83;116985;1186;23673;-58
2022/01/05 10:10:40;;;;;;;;;;;;;;;13.93;64.63;99299.52;116964;1187;22650;-63
2022/01/05 10:13:08;;;;;;;;;;;;;;;14.17;64.74;99291.60;116936;1188;23637;-64
2022/01/05 10:15:36;;;;;;;;;;;;;;;14.42;64.80;99284.34;116971;1186;22037;-64
2022/01/05 10:18:15;;;;;;;;;;;;;;;14.64;64.82;99282.77;116864;1189;21925;-63
2022/01/05 10:20:55;;;;;;;;;;;;;;;14.85;64.68;99274.61;116788;1186;21844;-59
2022/01/05 10:23:41;;;;;;;;;;;;;;;14.95;64.61;99270.77;116805;1186;22622;-59
2022/01/05 10:26:18;;;;;;;;;;;;;;;15.08;64.51;99266.10;116870;1188;21871;-64
2022/01/05 10:28:47;;;;;;;;;;;;;;;15.14;64.49;99262.98;118167;1186;21982;-64
2022/01/05 10:31:15;;;;;;;;;;;;;;;15.18;64.51;99266.67;118115;1189;21849;-59
2022/01/05 10:33:44;;;;;;;;;;;;;;;15.22;64.41;99265.78;116836;1189;22933;-64
2022/01/05 10:36:11;;;;;;;;;;;;;;;15.21;64.49;99268.99;116914;1188;22937;-64
2022/01/05 10:38:49;;;;;;;;;;;;;;;15.27;64.58;99267.44;116854;1186;21858;-59
2022/01/05 10:41:18;;;;;;;;;;;;;;;15.35;64.66;99258.55;116990;1184;21843;-58
2022/01/05 10:44:05;;;;;;;;;;;;;;;15.48;64.68;99256.33;116956;1186;23439;-65
2022/01/05 10:46:37;;;;;;;;;;;;;;;15.61;64.71;99254.09;117208;1186;22706;-57
2022/01/05 10:49:05;;;;;;;;;;;;;;;15.77;64.79;99260.53;117024;1186;22951;-63
2022/01/05 10:51:34;;;;;;;;;;;;;;;15.88;64.70;99254.66;117021;1186;23461;-64
2022/01/05 10:54:16;;;;;;;;;;;;;;;15.99;64.79;99249.20;117051;1185;22612;-64
2022/01/05 10:56:45;;;;;;;;;;;;;;;16.06;64.59;99244.74;117025;1186;22605;-59
2022/01/05 10:59:14;;;;;;;;;;;;;;;16.08;64.49;99237.75;116970;1189;22639;-59
2022/01/05 11:01:42;;;;;;;;;;;;;;;16.11;64.51;99239.70;116934;1186;21855;-64
2022/01/05 11:04:15;;;;;;;;;;;;;;;16.17;64.53;99242.73;116925;1186;23436;-60
2022/01/05 11:06:58;;;;;;;;;;;;;;;16.23;64.54;99242.27;117085;1186;22613;-60
2022/01/05 11:09:27;;;;;;;;;;;;;;;16.31;64.61;99235.42;116952;1186;21994;-63
2022/01/05 11:11:55;;;;;;;;;;;;;;;16.40;64.65;99227.86;117068;1186;22318;-59
2022/01/05 11:14:30;;;;;;;;;;;;;;;16.50;64.69;99224.34;117194;1186;23549;-59
2022/01/05 11:16:59;;;;;;;;;;;;;;;16.62;64.60;99220.10;118383;1186;21841;-60
2022/01/05 11:19:36;;;;;;;;;;;;;;;16.72;64.70;99224.17;116903;1186;23528;-64
2022/01/05 11:22:08;;;;;;;;;;;;;;;16.82;64.57;99225.20;116903;1185;22594;-63
2022/01/05 11:24:36;;;;;;;;;;;;;;;16.90;64.63;99225.61;117114;1187;21963;-60
2022/01/05 11:27:05;;;;;;;;;;;;;;;16.97;64.53;99220.32;117028;1186;22918;-60
2022/01/05 11:29:33;;;;;;;;;;;;;;;17.11;64.53;99218.65;117091;1183;22815;-63
2022/01/05 11:32:03;;;;;;;;;;;;;;;17.19;64.51;99224.02;117109;1182;23440;-64
2022/01/05 11:34:31;;;;;;;;;;;;;;;17.29;64.42;99219.73;116871;1186;22638;-64
2022/01/05 11:37:04;;;;;;;;;;;;;;;17.37;64.48;99214.83;116922;1186;23452;-64
2022/01/05 11:39:34;;;;;;;;;;;;;;;17.43;64.38;99210.59;116947;1186;24715;-59
2022/01/05 11:42:06;;;;;;;;;;;;;;;17.50;64.52;99213.16;116998;1187;22047;-60
2022/01/05 11:44:44;;;;;;;;;;;;;;;17.57;64.57;99221.61;117106;1179;21843;-64
2022/01/05 11:47:23;;;;;;;;;;;;;;;17.63;64.32;99218.08;117154;1186;23554;-64
2022/01/05 11:49:55;;;;;;;;;;;;;;;17.67;64.41;99205.77;118202;1186;21846;-64
2022/01/05 11:52:42;;;;;;;;;;;;;;;17.69;64.16;99188.60;117070;1187;21875;-60
2022/01/05 11:55:11;;;;;;;;;;;;;;;17.63;63.96;99179.77;117039;1184;22931;-64
2022/01/05 11:58:06;;;;;;;;;;;;;;;17.58;63.93;99182.20;116889;1186;24167;-59
2022/01/05 12:00:34;;;;;;;;;;;;;;;17.52;64.11;99189.07;116997;1182;22930;-60
2022/01/05 12:03:03;;;;;;;;;;;;;;;17.49;64.05;99199.42;117130;1182;23483;-59
2022/01/05 12:05:52;;;;;;;;;;;;;;;17.45;64.06;99200.54;116875;1186;23445;-63
2022/01/05 12:08:53;;;;;;;;;;;;;;;17.40;63.96;99194.61;116971;1186;21860;-64
2022/01/05 12:11:29;;;;;;;;;;;;;;;17.38;63.88;99191.35;116845;1186;23637;-59
2022/01/05 12:13:57;;;;;;;;;;;;;;;17.42;64.12;99193.26;117042;1179;21843;-59
2022/01/05 12:16:25;;;;;;;;;;;;;;;17.44;63.95;99191.54;117009;1186;23531;-59
2022/01/05 12:19:02;;;;;;;;;;;;;;;17.50;63.81;99196.52;117027;1186;23541;-59
2022/01/05 12:21:52;;;;;;;;;;;;;;;17.39;63.72;99189.67;117519;1187;21840;-59
2022/01/05 12:24:20;;;;;;;;;;;;;;;17.28;63.55;99188.23;117088;1186;21833;-64
2022/01/05 12:27:09;;;;;;;;;;;;;;;17.16;63.54;99193.03;117161;1187;23448;-62
2022/01/05 12:29:38;;;;;;;;;;;;;;;17.05;63.55;99194.70;117150;1187;21882;-63
2022/01/05 12:32:07;;;;;;;;;;;;;;;16.95;63.42;99192.05;117089;1187;22941;-63
2022/01/05 12:34:52;;;;;;;;;;;;;;;16.85;63.37;99188.73;117129;1186;23438;-63
2022/01/05 12:37:36;;;;;;;;;;;;;;;16.71;63.36;99192.85;116996;1183;23440;-63
2022/01/05 12:40:23;;;;;;;;;;;;;;;16.56;63.38;99193.50;116997;1186;21841;-59
2022/01/05 12:43:10;;;;;;;;;;;;;;;16.46;63.35;99197.64;117046;1179;23072;-63
2022/01/05 12:45:49;;;;;;;;;;;;;;;16.33;63.34;99197.06;117044;1186;23426;-62
2022/01/05 12:48:32;;;;;;;;;;;;;;;16.18;63.22;99195.45;117075;1187;22933;-62
2022/01/05 12:51:20;;;;;;;;;;;;;;;16.01;63.04;99203.07;117017;1186;23080;-58
2022/01/05 12:54:01;;;;;;;;;;;;;;;15.83;63.03;99205.41;117069;1186;23435;-62
2022/01/05 12:56:30;;;;;;;;;;;;;;;15.67;63.04;99208.56;117006;1187;21843;-62
2022/01/05 12:58:59;;;;;;;;;;;;;;;15.62;62.84;99216.06;117089;1186;21833;-63
2022/01/05 13:01:27;;;;;;;;;;;;;;;15.54;62.75;99213.77;117069;1186;22988;-58
2022/01/05 13:03:57;;;;;;;;;;;;;;;15.44;62.71;99217.83;117095;1179;21840;-63
2022/01/05 13:06:29;;;;;;;;;;;;;;;15.18;62.97;99229.36;116989;1186;23515;-59
2022/01/05 13:08:58;;;;;;;;;;;;;;;15.05;63.05;99235.48;117033;1182;22927;-58
2022/01/05 13:11:45;;;;;;;;;;;;;;;14.96;63.19;99237.35;116952;1189;21844;-63